Map

Track Data

SID SEASON NUMBER BASIN SUBBASIN NAME ISO_TIME NATURE LAT LON WMO_WIND WMO_PRES WMO_AGENCY TRACK_TYPE DIST2LAND LANDFALL IFLAG USA_AGENCY USA_ATCF_ID USA_LAT USA_LON USA_RECORD USA_STATUS USA_WIND USA_PRES USA_SSHS USA_R34_NE USA_R34_SE USA_R34_SW USA_R34_NW USA_R50_NE USA_R50_SE USA_R50_SW USA_R50_NW USA_R64_NE USA_R64_SE USA_R64_SW USA_R64_NW USA_POCI USA_ROCI USA_RMW USA_EYE TOKYO_LAT TOKYO_LON TOKYO_GRADE TOKYO_WIND TOKYO_PRES TOKYO_R50_DIR TOKYO_R50_LONG TOKYO_R50_SHORT TOKYO_R30_DIR TOKYO_R30_LONG TOKYO_R30_SHORT TOKYO_LAND CMA_LAT CMA_LON CMA_CAT CMA_WIND CMA_PRES HKO_LAT HKO_LON HKO_CAT HKO_WIND HKO_PRES NEWDELHI_LAT NEWDELHI_LON NEWDELHI_GRADE NEWDELHI_WIND NEWDELHI_PRES NEWDELHI_CI NEWDELHI_DP NEWDELHI_POCI REUNION_LAT REUNION_LON REUNION_TYPE REUNION_WIND REUNION_PRES REUNION_TNUM REUNION_CI REUNION_RMW REUNION_R34_NE REUNION_R34_SE REUNION_R34_SW REUNION_R34_NW REUNION_R50_NE REUNION_R50_SE REUNION_R50_SW REUNION_R50_NW REUNION_R64_NE REUNION_R64_SE REUNION_R64_SW REUNION_R64_NW BOM_LAT BOM_LON BOM_TYPE BOM_WIND BOM_PRES BOM_TNUM BOM_CI BOM_RMW BOM_R34_NE BOM_R34_SE BOM_R34_SW BOM_R34_NW BOM_R50_NE BOM_R50_SE BOM_R50_SW BOM_R50_NW BOM_R64_NE BOM_R64_SE BOM_R64_SW BOM_R64_NW BOM_ROCI BOM_POCI BOM_EYE BOM_POS_METHOD BOM_PRES_METHOD NADI_LAT NADI_LON NADI_CAT NADI_WIND NADI_PRES WELLINGTON_LAT WELLINGTON_LON WELLINGTON_WIND WELLINGTON_PRES DS824_LAT DS824_LON DS824_STAGE DS824_WIND DS824_PRES TD9636_LAT TD9636_LON TD9636_STAGE TD9636_WIND TD9636_PRES TD9635_LAT TD9635_LON TD9635_WIND TD9635_PRES TD9635_ROCI NEUMANN_LAT NEUMANN_LON NEUMANN_CLASS NEUMANN_WIND NEUMANN_PRES MLC_LAT MLC_LON MLC_CLASS MLC_WIND MLC_PRES USA_GUST BOM_GUST BOM_GUST_PER REUNION_GUST REUNION_GUST_PER USA_SEAHGT USA_SEARAD_NE USA_SEARAD_SE USA_SEARAD_SW USA_SEARAD_NW STORM_SPEED STORM_DIR
1891278N15281 1891 44 NA CS NOT_NAMED 1891-10-04 12:00:00 TS 15.0000 -79.0000 35 hurdat_atl main 352 312 O_____________ hurdat_atl AL071891 15.0000 -79.0000 TS 35 0 11 334
1891278N15281 1891 44 NA CS NOT_NAMED 1891-10-04 15:00:00 TS 15.4876 -79.2498 main 312 272 P_____________ AL071891 15.4876 -79.2498 TS 37 0 11 334
1891278N15281 1891 44 NA CS NOT_NAMED 1891-10-04 18:00:00 TS 16.0000 -79.5000 40 hurdat_atl main 272 235 O_____________ hurdat_atl AL071891 16.0000 -79.5000 TS 40 0 12 335
1891278N15281 1891 44 NA CS NOT_NAMED 1891-10-04 21:00:00 TS 16.5375 -79.7500 main 235 215 P_____________ AL071891 16.5375 -79.7500 TS 42 0 11 334
1891278N15281 1891 44 NA CS NOT_NAMED 1891-10-05 00:00:00 TS 17.0000 -80.0000 45 hurdat_atl main 216 209 O_____________ hurdat_atl AL071891 17.0000 -80.0000 TS 45 0 9 328
1891278N15281 1891 44 NA CS NOT_NAMED 1891-10-05 03:00:00 TS 17.2875 -80.2502 main 225 220 P_____________ AL071891 17.2875 -80.2502 TS 45 0 7 316
1891278N15281 1891 44 NA CS NOT_NAMED 1891-10-05 06:00:00 TS 17.5000 -80.5000 45 hurdat_atl main 235 235 O_____________ hurdat_atl AL071891 17.5000 -80.5000 TS 45 0 7 313
1891278N15281 1891 44 NA CS NOT_NAMED 1891-10-05 09:00:00 TS 17.7350 -80.7501 main 260 257 P_____________ AL071891 17.7350 -80.7501 TS 45 0 7 316
1891278N15281 1891 44 NA CS NOT_NAMED 1891-10-05 12:00:00 TS 18.0000 -81.0000 45 hurdat_atl main 275 275 O_____________ hurdat_atl AL071891 18.0000 -81.0000 TS 45 0 8 321
1891278N15281 1891 44 NA CS NOT_NAMED 1891-10-05 15:00:00 TS 18.3275 -81.2501 main 306 306 P_____________ AL071891 18.3275 -81.2501 TS 45 0 8 326
1891278N15281 1891 44 NA CS NOT_NAMED 1891-10-05 18:00:00 TS 18.7000 -81.5000 45 hurdat_atl main 331 277 O_____________ hurdat_atl AL071891 18.7000 -81.5000 TS 45 0 9 327
1891278N15281 1891 44 NA CS NOT_NAMED 1891-10-05 21:00:00 TS 19.0775 -81.7650 main 277 228 P_____________ AL071891 19.0775 -81.7650 TS 45 0 9 329
1891278N15281 1891 44 NA CS NOT_NAMED 1891-10-06 00:00:00 TS 19.5000 -82.0000 45 hurdat_atl main 228 168 O_____________ hurdat_atl AL071891 19.5000 -82.0000 TS 45 0 10 337
1891278N15281 1891 44 NA CS NOT_NAMED 1891-10-06 03:00:00 TS 19.9850 -82.1726 main 168 113 P_____________ AL071891 19.9850 -82.1726 TS 45 0 10 344
1891278N15281 1891 44 NA CS NOT_NAMED 1891-10-06 06:00:00 TS 20.5000 -82.3000 45 hurdat_atl main 113 60 O_____________ hurdat_atl AL071891 20.5000 -82.3000 TS 45 0 10 346
1891278N15281 1891 44 NA CS NOT_NAMED 1891-10-06 09:00:00 TS 20.9925 -82.4373 main 60 11 P_____________ AL071891 20.9925 -82.4373 TS 45 0 10 349
1891278N15281 1891 44 NA CS NOT_NAMED 1891-10-06 12:00:00 TS 21.5000 -82.5000 45 hurdat_atl main 11 0 O_____________ hurdat_atl AL071891 21.5000 -82.5000 TS 45 0 11 0
1891278N15281 1891 44 NA CS NOT_NAMED 1891-10-06 15:00:00 TS 22.0425 -82.4377 main 38 10 P_____________ AL071891 22.0425 -82.4377 TS 45 0 11 10
1891278N15281 1891 44 NA CS NOT_NAMED 1891-10-06 18:00:00 TS 22.6000 -82.3000 45 hurdat_atl main 11 0 O_____________ hurdat_atl AL071891 22.6000 -82.3000 TS 45 0 11 12
1891278N15281 1891 44 NA NA NOT_NAMED 1891-10-06 21:00:00 TS 23.1500 -82.1723 main 0 0 P_____________ AL071891 23.1500 -82.1723 TS 42 0 11 14
1891278N15281 1891 44 NA NA NOT_NAMED 1891-10-07 00:00:00 TS 23.7000 -82.0000 40 hurdat_atl main 67 67 O_____________ hurdat_atl AL071891 23.7000 -82.0000 TS 40 0 12 19
1891278N15281 1891 44 NA NA NOT_NAMED 1891-10-07 03:00:00 TS 24.2383 -81.7745 main 122 52 P_____________ AL071891 24.2383 -81.7745 TS 42 0 12 23
1891278N15281 1891 44 NA GM NOT_NAMED 1891-10-07 06:00:00 TS 24.8000 -81.5000 45 hurdat_atl main 52 10 O_____________ hurdat_atl AL071891 24.8000 -81.5000 TS 45 0 13 24
1891278N15281 1891 44 NA GM NOT_NAMED 1891-10-07 08:00:00 TS 25.2000 -81.3000 45 hurdat_atl main 10 10 O_____________ hurdat_atl AL071891 25.2000 -81.3000 L TS 45 0 13 23
1891278N15281 1891 44 NA GM NOT_NAMED 1891-10-07 09:00:00 TS 25.4017 -81.2193 main 10 0 P_____________ AL071891 25.4017 -81.2193 TS 43 0 13 19
1891278N15281 1891 44 NA NA NOT_NAMED 1891-10-07 12:00:00 TS 26.0000 -81.0000 40 hurdat_atl main 0 0 O_____________ hurdat_atl AL071891 26.0000 -81.0000 TS 40 0 13 22
1891278N15281 1891 44 NA NA NOT_NAMED 1891-10-07 15:00:00 TS 26.5590 -80.6937 main 0 0 P_____________ AL071891 26.5590 -80.6937 TS 40 0 13 30
1891278N15281 1891 44 NA NA NOT_NAMED 1891-10-07 18:00:00 TS 27.1000 -80.3000 40 1004 hurdat_atl main 0 0 O_____________ hurdat_atl AL071891 27.1000 -80.3000 TS 40 1004 0 13 35
1891278N15281 1891 44 NA NA NOT_NAMED 1891-10-07 21:00:00 TS 27.6500 -79.8297 main 54 54 P_____________ AL071891 27.6500 -79.8297 TS 40 0 14 39
1891278N15281 1891 44 NA NA NOT_NAMED 1891-10-08 00:00:00 TS 28.2000 -79.3000 40 hurdat_atl main 121 121 O_____________ hurdat_atl AL071891 28.2000 -79.3000 TS 40 0 14 41
1891278N15281 1891 44 NA NA NOT_NAMED 1891-10-08 03:00:00 TS 28.7423 -78.7643 main 167 167 P_____________ AL071891 28.7423 -78.7643 TS 40 0 15 41
1891278N15281 1891 44 NA NA NOT_NAMED 1891-10-08 06:00:00 TS 29.3000 -78.2000 40 hurdat_atl main 240 240 O_____________ hurdat_atl AL071891 29.3000 -78.2000 TS 40 0 15 41
1891278N15281 1891 44 NA NA NOT_NAMED 1891-10-08 09:00:00 TS 29.8845 -77.6289 main 321 321 P_____________ AL071891 29.8845 -77.6289 TS 40 0 16 41
1891278N15281 1891 44 NA NA NOT_NAMED 1891-10-08 12:00:00 TS 30.5000 -77.0000 40 hurdat_atl main 359 346 O_____________ hurdat_atl AL071891 30.5000 -77.0000 TS 40 0 17 43
1891278N15281 1891 44 NA NA NOT_NAMED 1891-10-08 15:00:00 TS 31.1349 -76.2719 main 350 328 P_____________ AL071891 31.1349 -76.2719 TS 40 0 18 45
1891278N15281 1891 44 NA NA NOT_NAMED 1891-10-08 18:00:00 TS 31.8000 -75.5000 40 hurdat_atl main 330 291 O_____________ hurdat_atl AL071891 31.8000 -75.5000 TS 40 0 19 44
1891278N15281 1891 44 NA NA NOT_NAMED 1891-10-08 21:00:00 TS 32.4921 -74.7490 main 296 280 P_____________ AL071891 32.4921 -74.7490 TS 40 0 19 42
1891278N15281 1891 44 NA NA NOT_NAMED 1891-10-09 00:00:00 ET 33.2000 -74.0000 40 hurdat_atl main 283 283 O_____________ hurdat_atl AL071891 33.2000 -74.0000 EX 40 -4 19 42
1891278N15281 1891 44 NA NA NOT_NAMED 1891-10-09 03:00:00 ET 33.8995 -73.2488 main 296 288 P_____________ AL071891 33.8995 -73.2488 EX 40 -4 19 42
1891278N15281 1891 44 NA NA NOT_NAMED 1891-10-09 06:00:00 ET 34.6000 -72.5000 40 hurdat_atl main 303 303 O_____________ hurdat_atl AL071891 34.6000 -72.5000 EX 40 -4 19 41
1891278N15281 1891 44 NA NA NOT_NAMED 1891-10-09 09:00:00 ET 35.3295 -71.7496 main 347 345 P_____________ AL071891 35.3295 -71.7496 EX 42 -4 19 41
1891278N15281 1891 44 NA NA NOT_NAMED 1891-10-09 12:00:00 ET 36.0000 -71.0000 45 hurdat_atl main 404 404 O_____________ hurdat_atl AL071891 36.0000 -71.0000 EX 45 -4 17 44
1891278N15281 1891 44 NA NA NOT_NAMED 1891-10-09 15:00:00 ET 36.5662 -70.2863 main 463 463 P_____________ AL071891 36.5662 -70.2863 EX 42 -4 16 50
1891278N15281 1891 44 NA NA NOT_NAMED 1891-10-09 18:00:00 ET 37.0000 -69.5000 40 hurdat_atl main 500 495 O_____________ hurdat_atl AL071891 37.0000 -69.5000 EX 40 -4 16 62
1891278N15281 1891 44 NA NA NOT_NAMED 1891-10-09 21:00:00 ET 37.3015 -68.5738 main 500 500 P_____________ AL071891 37.3015 -68.5738 EX 37 -4 17 73
1891278N15281 1891 44 NA NA NOT_NAMED 1891-10-10 00:00:00 ET 37.5000 -67.5000 35 hurdat_atl main 513 513 O_____________ hurdat_atl AL071891 37.5000 -67.5000 EX 35 -4 18 79
1891278N15281 1891 44 NA NA NOT_NAMED 1891-10-10 03:00:00 ET 37.6606 -66.2888 main 545 545 P_____________ AL071891 37.6606 -66.2888 EX 35 -4 20 81
1891278N15281 1891 44 NA NA NOT_NAMED 1891-10-10 06:00:00 ET 37.8000 -65.0000 35 hurdat_atl main 608 O_____________ hurdat_atl AL071891 37.8000 -65.0000 EX 35 -4 21 82

About IBTrACS Database

This database is a web-friendly format of International Best Track Archive for Climate Stewardship (IBTrACS), a global best track data archive curated by NOAA dating back to 1842.

Updated: 2021-10-21